Time;durP1;ratioP1;P1;durP2;ratioP2;P2;SDS_P1;SDS_P2;PMS_P1;PMS_P2;Temp;Humidity;BMP_temperature;BMP_pressure;BME280_temperature;BME280_humidity;BME280_pressure;Samples;Min_cycle;Max_cycle;Signal;HPM_P1;HPM_P2
2021/05/05 00:00:26;;;;;;;4.82;1.13;;;6.90;99.90;;;;;;5079743;28;20032;-93
2021/05/05 00:02:53;;;;;;;6.57;1.25;;;6.90;99.90;;;;;;5074036;28;20627;-93
2021/05/05 00:05:21;;;;;;;4.53;1.52;;;6.90;99.90;;;;;;5093081;28;20032;-93
2021/05/05 00:07:47;;;;;;;4.40;1.30;;;6.90;99.90;;;;;;5092072;28;20028;-92
2021/05/05 00:10:14;;;;;;;5.30;1.20;;;6.90;99.90;;;;;;5080562;28;20119;-89
2021/05/05 00:12:42;;;;;;;6.38;1.38;;;6.90;99.90;;;;;;5071525;28;20035;-90
2021/05/05 00:15:15;;;;;;;6.80;1.20;;;6.90;99.90;;;;;;5071445;28;20032;-92
2021/05/05 00:17:41;;;;;;;6.03;1.20;;;7.00;99.90;;;;;;5072178;28;20099;-90
2021/05/05 00:20:09;;;;;;;5.65;1.33;;;7.00;99.90;;;;;;5083862;28;20464;-91
2021/05/05 00:22:36;;;;;;;6.75;1.55;;;7.00;99.90;;;;;;5091801;28;20031;-93
2021/05/05 00:25:05;;;;;;;7.32;1.80;;;7.00;99.90;;;;;;5090697;28;20361;-89
2021/05/05 00:27:32;;;;;;;7.90;1.70;;;7.00;99.90;;;;;;5079733;28;20222;-91
2021/05/05 00:29:58;;;;;;;4.90;1.73;;;7.00;99.90;;;;;;5082016;28;20036;-90
2021/05/05 00:32:25;;;;;;;7.60;1.40;;;7.00;99.90;;;;;;5084900;28;20059;-93
2021/05/05 00:34:51;;;;;;;7.20;1.70;;;7.00;99.90;;;;;;5075574;28;20056;-94
2021/05/05 00:37:17;;;;;;;4.30;1.50;;;7.00;99.90;;;;;;5092471;28;20031;-94
2021/05/05 00:39:43;;;;;;;7.43;1.80;;;7.00;99.90;;;;;;5092244;28;20036;-92
2021/05/05 00:42:09;;;;;;;6.63;1.90;;;7.00;99.90;;;;;;5091036;28;20093;-88
2021/05/05 00:44:35;;;;;;;5.03;1.65;;;6.90;99.90;;;;;;5074405;28;20028;-92
2021/05/05 00:47:01;;;;;;;7.07;2.00;;;7.00;99.90;;;;;;5074799;28;20021;-93
2021/05/05 00:49:27;;;;;;;7.88;1.85;;;7.00;99.90;;;;;;5075858;28;20032;-90
2021/05/05 00:51:53;;;;;;;10.57;2.03;;;7.00;99.90;;;;;;5090030;28;20039;-94
2021/05/05 00:54:21;;;;;;;7.72;2.20;;;7.00;99.90;;;;;;5092660;28;20063;-89
2021/05/05 00:56:47;;;;;;;9.27;2.63;;;7.00;99.90;;;;;;5094960;28;20028;-90
2021/05/05 00:59:13;;;;;;;14.65;4.05;;;7.00;99.90;;;;;;5072637;28;20135;-92
2021/05/05 01:01:40;;;;;;;9.68;2.90;;;7.00;99.90;;;;;;5073088;28;20028;-86
2021/05/05 01:04:08;;;;;;;13.23;3.88;;;7.00;99.90;;;;;;5083356;28;20094;-87
2021/05/05 01:06:35;;;;;;;10.45;2.85;;;7.00;99.90;;;;;;5090498;28;20099;-90
2021/05/05 01:09:02;;;;;;;7.97;3.15;;;7.00;99.90;;;;;;5073299;28;20033;-90
2021/05/05 01:11:28;;;;;;;7.10;2.90;;;6.90;99.90;;;;;;5090152;28;20028;-91
2021/05/05 01:13:54;;;;;;;7.78;3.40;;;6.90;99.90;;;;;;5078986;28;20028;-90
2021/05/05 01:16:21;;;;;;;12.35;3.78;;;6.90;99.90;;;;;;5083111;28;20020;-91
2021/05/05 01:18:49;;;;;;;8.10;3.90;;;6.80;99.90;;;;;;5075302;28;20024;-89
2021/05/05 01:21:16;;;;;;;7.95;3.55;;;6.70;99.90;;;;;;5092208;28;20469;-93
2021/05/05 01:23:42;;;;;;;6.40;3.25;;;6.70;99.90;;;;;;5093404;28;20024;-90
2021/05/05 01:26:09;;;;;;;9.93;3.65;;;6.70;99.90;;;;;;5094686;28;20028;-93
2021/05/05 01:28:42;;;;;;;6.95;2.60;;;6.70;99.90;;;;;;5098172;28;20052;-91
2021/05/05 01:31:13;;;;;;;8.45;2.50;;;6.70;99.90;;;;;;5098193;28;20040;-94
2021/05/05 01:33:41;;;;;;;9.00;2.85;;;6.60;99.90;;;;;;5098368;28;20127;-94
2021/05/05 01:36:11;;;;;;;8.57;2.50;;;6.60;99.90;;;;;;5097412;28;20016;-94
2021/05/05 01:38:37;;;;;;;6.85;2.63;;;6.50;99.90;;;;;;5096716;28;20031;-92
2021/05/05 01:41:05;;;;;;;6.35;1.80;;;6.30;99.90;;;;;;5098298;28;20032;-92
2021/05/05 01:43:31;;;;;;;3.30;1.55;;;6.10;99.90;;;;;;5097263;28;20020;-90
2021/05/05 01:45:57;;;;;;;4.90;1.02;;;6.00;99.90;;;;;;5096714;28;20066;-90
2021/05/05 01:48:23;;;;;;;3.65;1.00;;;5.90;99.90;;;;;;5098732;28;20028;-91
2021/05/05 01:50:49;;;;;;;5.10;1.30;;;5.90;99.90;;;;;;5096971;28;20028;-91
2021/05/05 01:53:16;;;;;;;5.97;1.52;;;5.80;99.90;;;;;;5096876;28;20036;-91
2021/05/05 01:55:45;;;;;;;6.05;1.52;;;5.80;99.90;;;;;;5096737;28;20024;-92
2021/05/05 01:58:11;;;;;;;6.15;1.25;;;5.70;99.90;;;;;;5096747;28;20031;-92
2021/05/05 02:00:40;;;;;;;10.57;1.80;;;5.70;99.90;;;;;;5098087;28;20103;-92
2021/05/05 02:03:06;;;;;;;6.43;1.38;;;5.70;99.90;;;;;;5096742;28;20511;-92
2021/05/05 02:05:33;;;;;;;7.13;1.63;;;5.60;99.90;;;;;;5096507;28;20031;-91
2021/05/05 02:07:59;;;;;;;6.75;2.60;;;5.60;99.90;;;;;;5094964;28;20133;-91
2021/05/05 02:10:25;;;;;;;5.90;1.63;;;5.60;99.90;;;;;;5095445;28;20021;-91
2021/05/05 02:12:51;;;;;;;7.43;1.95;;;5.60;99.90;;;;;;5094817;28;20036;-91
2021/05/05 02:15:19;;;;;;;10.15;2.78;;;5.50;99.90;;;;;;5094482;28;20031;-91
2021/05/05 02:17:46;;;;;;;8.80;1.80;;;5.50;99.90;;;;;;5095025;28;20031;-90
2021/05/05 02:20:17;;;;;;;7.03;1.60;;;5.50;99.90;;;;;;5094912;28;20028;-91
2021/05/05 02:22:43;;;;;;;8.30;2.13;;;5.50;99.90;;;;;;5095269;28;20020;-92
2021/05/05 02:25:10;;;;;;;10.45;1.95;;;5.50;99.90;;;;;;5094620;28;20043;-92
2021/05/05 02:27:37;;;;;;;9.82;2.05;;;5.50;99.90;;;;;;5093843;28;20031;-89
2021/05/05 02:30:09;;;;;;;6.95;1.55;;;5.50;99.90;;;;;;5095451;28;20484;-90
2021/05/05 02:32:36;;;;;;;8.75;1.85;;;5.50;99.90;;;;;;5095668;28;20032;-90
2021/05/05 02:35:03;;;;;;;5.95;1.52;;;5.40;99.90;;;;;;5097260;28;20132;-89
2021/05/05 02:37:30;;;;;;;9.70;2.13;;;5.40;99.90;;;;;;5096736;28;20463;-89
2021/05/05 02:39:56;;;;;;;10.50;2.47;;;5.40;99.90;;;;;;5096506;28;20023;-90
2021/05/05 02:42:22;;;;;;;8.38;2.00;;;5.40;99.90;;;;;;5096552;28;20028;-90
2021/05/05 02:44:49;;;;;;;9.38;2.28;;;5.40;99.90;;;;;;5095140;28;20035;-91
2021/05/05 02:47:21;;;;;;;8.80;2.42;;;5.40;99.90;;;;;;5095950;28;20468;-90
2021/05/05 02:49:46;;;;;;;13.20;2.45;;;5.40;99.90;;;;;;5096806;28;20020;-91
2021/05/05 02:52:12;;;;;;;10.45;2.72;;;5.40;99.90;;;;;;5095028;28;20091;-92
2021/05/05 02:54:38;;;;;;;8.25;2.35;;;5.40;99.90;;;;;;5095175;28;20074;-93
2021/05/05 02:57:04;;;;;;;13.02;3.20;;;5.40;99.90;;;;;;5095580;28;20058;-92
2021/05/05 02:59:30;;;;;;;13.65;3.08;;;5.40;99.90;;;;;;5096841;28;20020;-92
2021/05/05 03:01:56;;;;;;;12.48;2.65;;;5.40;99.90;;;;;;5095112;28;20476;-91
2021/05/05 03:04:24;;;;;;;10.52;3.60;;;5.40;99.90;;;;;;5095506;28;20059;-91
2021/05/05 03:06:49;;;;;;;7.50;2.53;;;5.30;99.90;;;;;;5078389;28;20028;-93
2021/05/05 03:09:18;;;;;;;8.75;2.33;;;5.30;99.90;;;;;;5095122;28;20082;-92
2021/05/05 03:11:44;;;;;;;8.23;2.60;;;5.30;99.90;;;;;;5094703;28;20036;-91
2021/05/05 03:14:11;;;;;;;8.18;2.35;;;5.30;99.90;;;;;;5096108;28;20364;-93
2021/05/05 03:16:37;;;;;;;6.43;2.72;;;5.30;99.90;;;;;;5095303;28;20177;-92
2021/05/05 03:19:03;;;;;;;6.90;2.78;;;5.30;99.90;;;;;;5095370;28;20486;-92
2021/05/05 03:21:29;;;;;;;9.48;3.42;;;5.30;99.90;;;;;;5095160;28;20127;-91
2021/05/05 03:23:54;;;;;;;7.93;3.00;;;5.40;99.90;;;;;;5095254;28;20032;-92
2021/05/05 03:26:20;;;;;;;7.57;2.05;;;5.40;99.90;;;;;;5094797;28;20035;-92
2021/05/05 03:28:46;;;;;;;8.40;2.53;;;5.40;99.90;;;;;;5078309;28;20020;-92
2021/05/05 03:31:13;;;;;;;8.02;3.38;;;5.50;99.90;;;;;;5095671;28;20024;-91
2021/05/05 03:33:39;;;;;;;6.90;2.90;;;5.50;99.90;;;;;;5094461;28;20468;-94
2021/05/05 03:36:06;;;;;;;10.18;4.28;;;5.50;99.90;;;;;;5094734;28;20107;-92
2021/05/05 03:38:32;;;;;;;10.52;4.38;;;5.50;99.90;;;;;;5077521;28;20476;-92
2021/05/05 03:40:58;;;;;;;16.15;5.65;;;5.60;99.90;;;;;;5095830;28;20030;-91
2021/05/05 03:43:24;;;;;;;14.15;5.55;;;5.50;99.90;;;;;;5094295;28;20119;-92
2021/05/05 03:45:49;;;;;;;15.18;6.93;;;5.50;99.90;;;;;;5077565;28;20561;-92
2021/05/05 03:48:16;;;;;;;17.90;5.90;;;5.50;99.90;;;;;;5095628;28;20063;-92
2021/05/05 03:50:42;;;;;;;11.63;5.82;;;5.50;99.90;;;;;;5094144;28;20031;-91
2021/05/05 03:53:08;;;;;;;12.02;6.00;;;5.50;99.90;;;;;;5094087;28;20028;-92
2021/05/05 03:55:34;;;;;;;15.55;6.70;;;5.50;99.90;;;;;;5093318;28;20503;-92
2021/05/05 03:57:59;;;;;;;10.65;6.00;;;5.50;99.90;;;;;;5094486;28;20024;-92
2021/05/05 04:00:25;;;;;;;9.75;5.43;;;5.50;99.90;;;;;;5094212;28;20020;-92
2021/05/05 04:02:51;;;;;;;13.30;5.90;;;5.50;99.90;;;;;;5093904;28;20495;-91
2021/05/05 04:05:16;;;;;;;13.05;6.30;;;5.50;99.90;;;;;;5077654;28;20121;-93
2021/05/05 04:07:42;;;;;;;14.50;5.82;;;5.40;99.90;;;;;;5077292;28;20545;-92
2021/05/05 04:10:09;;;;;;;11.30;5.60;;;5.40;99.90;;;;;;5094980;28;20107;-92
2021/05/05 04:12:37;;;;;;;17.73;6.30;;;5.50;99.90;;;;;;5077186;28;20039;-93
2021/05/05 04:15:04;;;;;;;13.35;5.85;;;5.50;99.90;;;;;;5093601;28;20028;-92
2021/05/05 04:17:29;;;;;;;13.00;5.13;;;5.40;99.90;;;;;;5094633;28;20028;-91
2021/05/05 04:19:56;;;;;;;11.50;5.05;;;5.40;99.90;;;;;;5093910;28;20047;-92
2021/05/05 04:22:23;;;;;;;14.50;5.18;;;5.40;99.90;;;;;;5094751;28;20098;-91
2021/05/05 04:24:49;;;;;;;14.13;5.45;;;5.40;99.90;;;;;;5094673;28;20032;-89
2021/05/05 04:27:16;;;;;;;14.32;4.85;;;5.40;99.90;;;;;;5095434;28;20086;-90
2021/05/05 04:29:41;;;;;;;13.95;4.50;;;5.40;99.90;;;;;;5077879;28;20039;-91
2021/05/05 04:32:09;;;;;;;12.20;4.65;;;5.50;99.90;;;;;;5093878;28;20484;-91
2021/05/05 04:34:34;;;;;;;8.43;4.40;;;5.50;99.90;;;;;;5094028;28;20051;-92
2021/05/05 04:37:06;;;;;;;14.10;4.88;;;5.60;99.90;;;;;;5094461;28;20133;-90
2021/05/05 04:39:32;;;;;;;14.98;4.78;;;5.60;99.90;;;;;;5094576;28;20115;-90
2021/05/05 04:41:58;;;;;;;14.60;4.80;;;5.70;99.90;;;;;;5094017;28;20024;-90
2021/05/05 04:44:23;;;;;;;12.10;5.05;;;5.70;99.90;;;;;;5093737;28;20040;-91
2021/05/05 04:46:49;;;;;;;13.88;4.30;;;5.70;99.90;;;;;;5094133;28;20052;-91
2021/05/05 04:49:15;;;;;;;15.52;4.95;;;5.70;99.90;;;;;;5093923;28;20479;-91
2021/05/05 04:51:40;;;;;;;13.85;4.93;;;5.70;99.90;;;;;;5093904;28;20028;-90
2021/05/05 04:54:08;;;;;;;10.77;4.50;;;5.60;99.90;;;;;;5092934;28;20391;-91
2021/05/05 04:56:36;;;;;;;12.48;4.32;;;5.60;99.90;;;;;;5076789;28;20028;-91
2021/05/05 04:59:03;;;;;;;9.57;4.10;;;5.60;99.90;;;;;;5093416;28;20027;-91
2021/05/05 05:01:29;;;;;;;13.07;4.50;;;5.60;99.90;;;;;;5093739;28;20094;-92
2021/05/05 05:03:55;;;;;;;12.70;4.45;;;5.60;99.90;;;;;;5093150;28;20020;-90
2021/05/05 05:06:21;;;;;;;13.68;4.85;;;5.60;99.90;;;;;;5076408;28;20035;-91
2021/05/05 05:08:48;;;;;;;11.68;4.32;;;5.50;99.90;;;;;;5093232;28;20380;-92
2021/05/05 05:11:14;;;;;;;10.60;5.00;;;5.50;99.90;;;;;;5093110;28;20024;-89
2021/05/05 05:13:40;;;;;;;10.50;4.47;;;5.50;99.90;;;;;;5092085;28;20053;-88
2021/05/05 05:16:08;;;;;;;16.55;5.85;;;5.50;99.90;;;;;;5090878;28;20135;-90
2021/05/05 05:18:34;;;;;;;18.02;5.85;;;5.50;99.90;;;;;;5090576;28;20019;-90
2021/05/05 05:21:04;;;;;;;18.80;6.05;;;5.60;99.90;;;;;;5091455;28;20032;-91
2021/05/05 05:23:31;;;;;;;12.50;5.25;;;5.50;99.90;;;;;;5090903;28;20024;-89
2021/05/05 05:25:57;;;;;;;11.77;4.65;;;5.50;99.90;;;;;;5083848;28;20028;-90
2021/05/05 05:28:24;;;;;;;12.30;4.95;;;5.50;99.90;;;;;;5081089;28;20044;-90
2021/05/05 05:30:52;;;;;;;13.73;5.45;;;5.50;99.90;;;;;;5070900;28;20028;-89
2021/05/05 05:33:18;;;;;;;10.18;4.38;;;5.50;99.90;;;;;;5054145;28;20033;-89
2021/05/05 05:35:43;;;;;;;11.00;4.45;;;5.50;99.90;;;;;;5037986;28;20086;-89
2021/05/05 05:38:09;;;;;;;12.52;4.60;;;5.50;99.90;;;;;;5072386;28;20176;-88
2021/05/05 05:40:35;;;;;;;13.85;4.93;;;5.50;99.90;;;;;;5073791;28;20025;-89
2021/05/05 05:43:01;;;;;;;10.95;4.25;;;5.50;99.90;;;;;;5054634;28;20473;-90
2021/05/05 05:45:27;;;;;;;12.85;4.10;;;5.40;99.90;;;;;;5054131;28;20060;-90
2021/05/05 05:47:53;;;;;;;9.68;3.85;;;5.50;99.90;;;;;;5054172;28;20059;-89
2021/05/05 05:50:20;;;;;;;8.75;3.90;;;5.40;99.90;;;;;;5071240;28;20029;-90
2021/05/05 05:52:45;;;;;;;7.97;3.55;;;5.50;99.90;;;;;;5054375;28;20029;-92
2021/05/05 05:55:16;;;;;;;9.30;3.85;;;5.60;99.90;;;;;;5054010;28;20039;-91
2021/05/05 05:57:43;;;;;;;9.82;3.60;;;5.70;99.90;;;;;;5053510;28;20163;-91
2021/05/05 06:00:11;;;;;;;13.88;3.53;;;5.70;99.90;;;;;;5071999;28;20024;-90
2021/05/05 06:02:37;;;;;;;9.45;3.00;;;5.80;99.90;;;;;;5053743;28;20028;-91
2021/05/05 06:05:04;;;;;;;10.15;4.00;;;5.80;99.90;;;;;;5053960;28;20369;-91
2021/05/05 06:07:30;;;;;;;10.15;4.13;;;5.90;99.90;;;;;;5037171;28;20047;-92
2021/05/05 06:09:56;;;;;;;10.15;4.25;;;6.00;99.90;;;;;;5038640;28;20028;-92
2021/05/05 06:12:24;;;;;;;10.15;4.05;;;6.20;99.90;;;;;;5055616;28;20029;-92
2021/05/05 06:14:58;;;;;;;12.23;4.70;;;6.30;99.90;;;;;;5058703;28;20067;-92
2021/05/05 06:17:25;;;;;;;10.70;3.35;;;6.40;99.90;;;;;;5061146;28;20029;-90
2021/05/05 06:19:51;;;;;;;9.75;3.45;;;6.40;99.90;;;;;;5059404;28;20111;-91
2021/05/05 06:22:16;;;;;;;9.15;3.30;;;6.30;99.90;;;;;;5059807;28;20056;-92
2021/05/05 06:24:45;;;;;;;11.65;3.20;;;6.40;99.90;;;;;;5059604;28;20078;-93
2021/05/05 06:27:11;;;;;;;6.95;2.53;;;6.40;99.90;;;;;;5059322;28;20043;-91
2021/05/05 06:29:37;;;;;;;8.40;2.63;;;6.40;99.90;;;;;;5059175;28;20021;-92
2021/05/05 06:32:07;;;;;;;8.32;2.28;;;6.40;99.90;;;;;;5059826;28;20040;-90
2021/05/05 06:34:32;;;;;;;10.82;2.83;;;6.40;99.90;;;;;;5043003;28;20049;-91
2021/05/05 06:37:00;;;;;;;9.15;2.92;;;6.40;99.90;;;;;;5059096;28;20028;-91
2021/05/05 06:39:26;;;;;;;9.95;2.55;;;6.40;99.90;;;;;;5059430;28;20036;-90
2021/05/05 06:41:51;;;;;;;8.85;2.50;;;6.40;99.90;;;;;;5059258;28;20032;-91
2021/05/05 06:44:17;;;;;;;15.00;2.55;;;6.40;99.90;;;;;;5059370;28;20028;-91
2021/05/05 06:46:43;;;;;;;9.30;1.90;;;6.40;99.90;;;;;;5076714;28;20070;-92
2021/05/05 06:49:14;;;;;;;11.05;2.72;;;6.50;99.90;;;;;;5058865;28;20084;-93
2021/05/05 06:51:40;;;;;;;10.05;2.53;;;6.70;99.90;;;;;;5058559;28;20043;-89
2021/05/05 06:54:07;;;;;;;9.63;2.53;;;6.90;99.90;;;;;;5059399;28;20065;-93
2021/05/05 06:56:33;;;;;;;8.52;2.05;;;6.80;99.90;;;;;;5058936;28;20472;-93
2021/05/05 06:59:07;;;;;;;9.60;1.80;;;6.80;99.90;;;;;;5059380;28;20021;-90
2021/05/05 07:01:37;;;;;;;;;;;6.70;99.90;;;;;;5059284;28;20074;-90
2021/05/05 07:04:07;;;;;;;9.25;1.92;;;6.60;99.90;;;;;;5077000;28;19911;-90
2021/05/05 07:06:33;;;;;;;11.75;2.08;;;6.70;99.90;;;;;;5059224;28;20074;-92
2021/05/05 07:09:00;;;;;;;8.15;2.53;;;6.80;99.90;;;;;;5041672;28;20062;-88
2021/05/05 07:11:27;;;;;;;9.40;2.05;;;6.80;99.90;;;;;;5076107;28;20457;-92
2021/05/05 07:13:54;;;;;;;8.02;2.20;;;6.80;99.90;;;;;;5041539;28;20052;-92
2021/05/05 07:16:22;;;;;;;5.03;1.63;;;6.80;99.90;;;;;;5058373;28;20062;-92
2021/05/05 07:18:48;;;;;;;11.13;2.50;;;6.90;99.90;;;;;;5026173;28;20123;-92
2021/05/05 07:21:14;;;;;;;8.77;3.15;;;6.90;99.90;;;;;;5058903;28;20098;-92
2021/05/05 07:23:51;;;;;;;11.52;3.40;;;7.00;99.90;;;;;;5058565;28;20100;-93
2021/05/05 07:26:21;;;;;;;9.63;2.17;;;7.00;99.90;;;;;;5076036;28;20491;-93
2021/05/05 07:28:47;;;;;;;5.95;2.20;;;7.10;99.90;;;;;;5050979;28;20028;-93
2021/05/05 07:31:13;;;;;;;7.90;2.35;;;7.20;99.90;;;;;;5078142;28;20082;-93
2021/05/05 07:33:39;;;;;;;13.05;3.22;;;7.20;99.90;;;;;;5078213;28;20055;-94
2021/05/05 07:36:25;;;;;;;;;;;;;;;;;;;;;
2021/05/05 07:39:08;;;;;;;8.98;2.20;;;7.30;99.90;;;;;;5086185;28;20036;-92
2021/05/05 07:47:15;;;;;;;9.00;3.30;;;7.60;99.90;;;;;;5076017;28;20178;-93
2021/05/05 07:49:51;;;;;;;7.15;2.05;;;7.60;99.90;;;;;;5062002;28;20039;-92
2021/05/05 07:52:18;;;;;;;8.75;2.08;;;7.60;99.90;;;;;;5059207;28;20036;-91
2021/05/05 07:54:44;;;;;;;7.43;2.70;;;7.60;99.90;;;;;;5059715;28;20020;-92
2021/05/05 07:57:10;;;;;;;7.28;2.05;;;7.60;99.90;;;;;;5058328;28;20071;-91
2021/05/05 07:59:42;;;;;;;9.70;2.83;;;7.60;99.90;;;;;;5057484;28;20021;-92
2021/05/05 08:02:08;;;;;;;9.95;2.33;;;7.70;99.90;;;;;;5041377;28;20060;-88
2021/05/05 08:04:50;;;;;;;8.65;2.38;;;7.80;99.90;;;;;;5057689;28;20031;-90
2021/05/05 08:07:21;;;;;;;7.30;2.20;;;8.00;99.90;;;;;;5042719;28;20059;-91
2021/05/05 08:09:57;;;;;;;7.88;2.00;;;7.90;99.90;;;;;;5040933;28;20029;-90
2021/05/05 08:12:28;;;;;;;5.88;1.55;;;7.70;99.90;;;;;;5056301;28;20045;-92
2021/05/05 08:15:02;;;;;;;5.53;1.30;;;7.60;99.90;;;;;;5039338;28;20044;-93
2021/05/05 08:17:28;;;;;;;6.00;1.27;;;7.50;99.90;;;;;;5055677;28;20098;-90
2021/05/05 08:19:54;;;;;;;7.18;1.13;;;7.40;99.90;;;;;;5055439;28;20504;-92
2021/05/05 08:22:20;;;;;;;6.05;1.45;;;7.30;99.90;;;;;;5063572;28;20082;-93
2021/05/05 08:24:45;;;;;;;5.45;1.30;;;7.20;99.90;;;;;;5056374;28;20028;-89
2021/05/05 08:27:11;;;;;;;7.88;1.58;;;7.30;99.90;;;;;;5058193;28;20102;-93
2021/05/05 08:29:38;;;;;;;8.88;1.33;;;7.40;99.90;;;;;;5074479;28;20089;-91
2021/05/05 08:32:08;;;;;;;6.28;1.63;;;7.40;99.90;;;;;;5093581;28;20055;-86
2021/05/05 08:34:34;;;;;;;9.73;1.38;;;7.50;99.90;;;;;;5093163;28;20086;-94
2021/05/05 08:37:00;;;;;;;7.40;1.20;;;7.70;99.90;;;;;;5092361;28;20055;-92
2021/05/05 08:39:26;;;;;;;5.80;1.30;;;7.90;99.90;;;;;;5075864;28;20526;-91
2021/05/05 08:41:57;;;;;;;5.15;1.00;;;8.00;99.90;;;;;;5074607;28;20020;-90
2021/05/05 08:44:23;;;;;;;4.32;1.08;;;8.00;99.90;;;;;;5092376;28;20089;-92
2021/05/05 08:46:54;;;;;;;5.03;1.20;;;8.10;99.90;;;;;;5074914;28;20110;-89
2021/05/05 08:49:20;;;;;;;5.47;1.27;;;8.20;99.90;;;;;;5074867;28;20016;-92
2021/05/05 08:51:50;;;;;;;5.72;1.55;;;8.30;99.90;;;;;;5074588;28;20032;-92
2021/05/05 08:54:19;;;;;;;9.38;2.22;;;8.40;99.90;;;;;;5075107;28;20028;-87
2021/05/05 08:56:46;;;;;;;4.65;1.30;;;8.30;99.90;;;;;;5092637;28;20020;-90
2021/05/05 08:59:19;;;;;;;3.58;0.93;;;8.30;99.90;;;;;;5074097;28;20031;-93
2021/05/05 09:01:48;;;;;;;3.80;1.08;;;8.40;99.90;;;;;;5074070;28;20559;-94
2021/05/05 09:04:14;;;;;;;7.03;1.38;;;8.60;99.90;;;;;;5074191;28;20442;-89
2021/05/05 09:06:57;;;;;;;9.73;1.80;;;8.90;99.90;;;;;;5074026;28;20028;-91
2021/05/05 09:09:37;;;;;;;7.07;1.88;;;8.90;99.90;;;;;;5057865;28;20032;-92
2021/05/05 09:12:25;;;;;;;7.47;1.70;;;8.80;99.90;;;;;;5074382;28;20035;-87
2021/05/05 09:14:55;;;;;;;7.47;1.30;;;8.60;99.90;;;;;;5061252;28;20032;-91
2021/05/05 09:17:29;;;;;;;6.40;1.80;;;8.50;99.90;;;;;;5055962;28;20013;-94
2021/05/05 09:20:12;;;;;;;7.00;1.60;;;8.50;99.90;;;;;;5072364;28;20031;-92
2021/05/05 09:22:47;;;;;;;8.45;2.42;;;8.50;99.90;;;;;;5055043;28;20354;-89
2021/05/05 09:25:33;;;;;;;10.20;2.22;;;8.60;99.90;;;;;;5053754;28;20048;-93
2021/05/05 09:28:27;;;;;;;7.60;1.85;;;9.00;99.90;;;;;;5057873;28;20036;-92
2021/05/05 09:30:55;;;;;;;9.45;1.95;;;9.20;99.90;;;;;;5073926;28;20025;-90
2021/05/05 09:33:45;;;;;;;12.30;1.67;;;9.20;99.90;;;;;;5046816;28;20033;-90
2021/05/05 09:36:19;;;;;;;7.57;1.70;;;9.00;99.90;;;;;;5047986;28;20033;-88
2021/05/05 09:38:50;;;;;;;5.57;1.48;;;8.90;99.90;;;;;;5057646;28;20025;-89
2021/05/05 09:41:42;;;;;;;9.00;1.88;;;9.00;99.90;;;;;;5068341;28;20430;-95
2021/05/05 09:44:11;;;;;;;8.27;1.98;;;9.70;99.90;;;;;;5069435;28;20025;-89
2021/05/05 09:46:47;;;;;;;7.75;1.42;;;10.80;99.90;;;;;;5062373;28;20087;-92
2021/05/05 09:49:33;;;;;;;8.98;1.70;;;11.70;99.90;;;;;;5068600;28;20025;-90
2021/05/05 09:52:16;;;;;;;6.55;1.60;;;12.30;99.90;;;;;;5053698;28;20136;-93
2021/05/05 09:54:58;;;;;;;5.27;1.43;;;12.40;99.90;;;;;;5077818;28;20059;-91
2021/05/05 09:57:30;;;;;;;7.23;1.30;;;12.30;99.90;;;;;;5057856;28;20024;-92
2021/05/05 10:00:18;;;;;;;4.50;1.05;;;12.30;99.90;;;;;;5059873;28;20032;-92
2021/05/05 10:02:56;;;;;;;5.55;0.98;;;12.80;99.90;;;;;;5054499;28;20052;-87
2021/05/05 10:05:34;;;;;;;5.55;1.08;;;13.10;99.90;;;;;;5068211;28;20062;-90
2021/05/05 10:08:11;;;;;;;4.88;1.05;;;13.30;99.90;;;;;;5074508;28;20044;-96
2021/05/05 10:10:38;;;;;;;11.43;1.98;;;13.10;99.90;;;;;;5075950;28;20099;-93
2021/05/05 10:13:07;;;;;;;5.85;1.23;;;12.70;99.90;;;;;;5057152;28;20028;-88
2021/05/05 10:15:38;;;;;;;6.35;1.60;;;12.40;99.90;;;;;;5070010;28;20052;-94
2021/05/05 10:18:11;;;;;;;5.95;1.35;;;12.30;99.90;;;;;;5074590;28;20021;-94
2021/05/05 10:20:43;;;;;;;5.53;1.50;;;12.70;99.90;;;;;;5075805;28;20020;-92
2021/05/05 10:23:35;;;;;;;6.82;1.38;;;12.50;99.70;;;;;;5041590;28;20048;-94
2021/05/05 10:26:05;;;;;;;4.45;0.90;;;12.00;99.90;;;;;;5075440;28;20029;-92
2021/05/05 10:28:36;;;;;;;4.45;1.20;;;11.60;99.90;;;;;;5057472;28;20028;-93
2021/05/05 10:31:08;;;;;;;4.43;1.05;;;11.50;99.90;;;;;;5041067;28;20048;-93
2021/05/05 10:33:45;;;;;;;4.70;0.90;;;11.70;99.90;;;;;;5073407;28;20041;-93
2021/05/05 10:39:40;;;;;;;6.75;1.50;;;12.90;99.90;;;;;;5036512;28;20504;-91
2021/05/05 10:42:16;;;;;;;5.47;1.20;;;14.00;99.90;;;;;;5076036;28;20025;-92
2021/05/05 10:44:53;;;;;;;5.35;1.45;;;14.70;99.70;;;;;;5073671;28;20101;-86
2021/05/05 10:47:37;;;;;;;7.18;1.40;;;15.30;98.60;;;;;;5073207;28;20123;-87
2021/05/05 10:50:13;;;;;;;6.53;1.52;;;15.50;97.00;;;;;;5072790;28;20029;-91
2021/05/05 10:53:18;;;;;;;7.25;2.05;;;15.30;96.70;;;;;;5073916;28;20476;-91
2021/05/05 10:56:00;;;;;;;8.38;1.48;;;14.80;97.10;;;;;;4977044;28;20022;-91
2021/05/05 10:58:32;;;;;;;7.32;1.70;;;14.40;97.60;;;;;;5066230;28;20047;-90
2021/05/05 11:01:18;;;;;;;10.27;1.80;;;14.20;97.30;;;;;;5072807;28;20025;-90
2021/05/05 11:04:14;;;;;;;11.13;2.28;;;13.70;97.00;;;;;;5073582;28;20052;-89
2021/05/05 11:06:51;;;;;;;6.43;1.55;;;13.70;97.40;;;;;;5073782;28;20032;-91
2021/05/05 11:09:19;;;;;;;10.30;1.98;;;13.90;97.80;;;;;;5072504;28;20032;-92
2021/05/05 11:11:52;;;;;;;8.35;1.48;;;13.70;98.10;;;;;;5053610;28;20057;-88
2021/05/05 11:14:24;;;;;;;5.13;1.20;;;13.80;98.60;;;;;;5055670;28;20025;-89
2021/05/05 11:17:06;;;;;;;5.95;1.30;;;14.30;98.20;;;;;;5055215;28;20080;-94
2021/05/05 11:19:59;;;;;;;5.80;1.70;;;15.00;97.70;;;;;;5038864;28;20037;-90
2021/05/05 11:22:34;;;;;;;4.32;1.52;;;15.10;96.20;;;;;;5055576;28;20019;-89
2021/05/05 11:25:21;;;;;;;7.25;1.40;;;15.00;96.40;;;;;;5055714;28;20051;-87
2021/05/05 11:27:51;;;;;;;6.38;1.60;;;15.10;97.10;;;;;;5055964;28;20036;-91
2021/05/05 11:30:47;;;;;;;5.35;1.38;;;15.10;96.80;;;;;;5073891;28;20036;-92
2021/05/05 11:33:13;;;;;;;11.68;2.22;;;14.50;97.30;;;;;;5071029;28;20036;-91
2021/05/05 11:35:44;;;;;;;6.70;1.88;;;14.40;96.10;;;;;;5057507;28;20457;-87
2021/05/05 11:38:42;;;;;;;8.90;1.88;;;14.80;96.40;;;;;;5058076;28;20029;-94
2021/05/05 11:41:14;;;;;;;6.03;1.55;;;15.50;95.30;;;;;;4961732;28;20100;-94
2021/05/05 11:43:49;;;;;;;9.07;1.67;;;15.80;94.90;;;;;;4997266;28;20030;-93
2021/05/05 11:46:41;;;;;;;7.13;2.28;;;16.20;93.60;;;;;;5071181;28;20039;-92
2021/05/05 11:52:32;;;;;;;6.88;1.75;;;16.00;92.90;;;;;;5049819;28;20433;-91
2021/05/05 11:55:29;;;;;;;;;;;;;;;;;;;;;
2021/05/05 11:58:07;;;;;;;7.50;1.70;;;16.40;91.50;;;;;;4995976;28;20172;-94
2021/05/05 12:00:48;;;;;;;11.15;2.20;;;16.10;92.50;;;;;;5047896;28;20032;-91
2021/05/05 12:03:15;;;;;;;7.18;1.75;;;15.50;91.70;;;;;;5058587;28;20131;-89
2021/05/05 12:06:07;;;;;;;7.47;1.70;;;14.10;93.30;;;;;;5070980;28;20022;-94
2021/05/05 12:08:43;;;;;;;8.82;2.25;;;12.60;96.80;;;;;;5071064;28;20051;-91
2021/05/05 12:11:16;;;;;;;8.13;2.28;;;11.70;99.20;;;;;;5070619;28;20039;-92
2021/05/05 12:14:03;;;;;;;6.43;1.77;;;11.30;99.90;;;;;;5088121;28;20032;-90
2021/05/05 12:17:29;;;;;;;7.82;2.05;;;11.70;99.90;;;;;;5065568;28;20028;-91
2021/05/05 12:20:02;;;;;;;6.45;1.65;;;13.00;99.90;;;;;;5044047;28;20032;-93
2021/05/05 12:22:29;;;;;;;7.65;1.83;;;14.20;98.90;;;;;;5061114;28;20473;-88
2021/05/05 12:28:23;;;;;;;8.90;1.85;;;15.60;96.30;;;;;;4972556;28;20151;-87
2021/05/05 12:30:51;;;;;;;6.03;1.60;;;15.50;95.40;;;;;;5015859;28;20120;-91
2021/05/05 12:33:40;;;;;;;8.02;1.90;;;15.00;95.00;;;;;;5047189;28;20373;-88
2021/05/05 12:36:25;;;;;;;7.25;1.58;;;14.50;95.90;;;;;;5076633;28;20085;-90
2021/05/05 12:38:56;;;;;;;5.25;1.45;;;14.40;96.40;;;;;;5069776;28;20035;-87
2021/05/05 12:42:15;;;;;;;7.47;1.73;;;14.40;95.80;;;;;;5076893;28;20111;-87
2021/05/05 12:45:13;;;;;;;8.43;2.08;;;14.10;95.50;;;;;;5071321;28;20114;-90
2021/05/05 12:47:48;;;;;;;8.13;1.50;;;13.30;98.50;;;;;;5081825;28;20024;-94
2021/05/05 12:50:20;;;;;;;7.57;1.80;;;12.40;99.90;;;;;;5077838;28;20012;-85
2021/05/05 12:53:08;;;;;;;6.38;1.60;;;12.00;99.90;;;;;;5080257;28;20024;-91
2021/05/05 12:55:43;;;;;;;8.10;2.00;;;12.90;99.90;;;;;;5068083;28;20555;-90
2021/05/05 12:58:14;;;;;;;6.78;1.55;;;14.00;99.90;;;;;;5061870;28;20115;-88
2021/05/05 13:01:29;;;;;;;11.27;1.88;;;14.40;99.90;;;;;;5077864;28;20127;-91
2021/05/05 13:04:00;;;;;;;8.07;1.70;;;14.20;99.10;;;;;;5066367;28;20048;-93
2021/05/05 13:06:46;;;;;;;9.02;2.22;;;13.50;98.40;;;;;;5055972;28;20028;-88
2021/05/05 13:20:50;;;;;;;;;;;;;;;;;;;;;
2021/05/05 13:32:19;;;;;;;;;;;;;;;;;;;;;
2021/05/05 13:35:34;;;;;;;9.77;1.70;;;14.80;92.60;;;;;;5063833;28;20067;-95
2021/05/05 13:38:34;;;;;;;7.03;1.75;;;14.80;92.20;;;;;;5014074;28;20047;-89
2021/05/05 13:41:04;;;;;;;8.25;1.90;;;14.30;91.30;;;;;;5055504;28;20025;-88
2021/05/05 13:43:58;;;;;;;5.00;1.30;;;13.90;92.40;;;;;;5055615;28;20032;-87
2021/05/05 13:47:19;;;;;;;9.05;2.00;;;14.50;93.00;;;;;;5055429;28;20020;-88
2021/05/05 13:49:42;;;;;;;7.47;1.75;;;14.70;90.90;;;;;;5043659;28;20033;-93
2021/05/05 13:52:11;;;;;;;9.85;2.47;;;15.00;92.00;;;;;;5039971;28;20523;-92